createdAt,value
2023-05-21T00:00:29.665Z,0.00
2023-05-21T00:01:29.648Z,0.00
2023-05-21T00:02:29.683Z,0.00
2023-05-21T00:03:29.814Z,0.00
2023-05-21T00:04:29.634Z,0.00
2023-05-21T00:05:29.613Z,0.00
2023-05-21T00:06:29.808Z,0.00
2023-05-21T00:07:29.590Z,0.00
2023-05-21T00:08:29.583Z,0.00
2023-05-21T00:09:29.585Z,0.00
2023-05-21T00:10:29.551Z,0.00
2023-05-21T00:11:29.540Z,0.00
2023-05-21T00:12:29.538Z,0.00
2023-05-21T00:13:29.529Z,0.00
2023-05-21T00:14:29.524Z,0.00
2023-05-21T00:15:29.528Z,0.00
2023-05-21T00:16:29.584Z,0.00
2023-05-21T00:17:29.500Z,0.00
2023-05-21T00:18:29.466Z,0.00
2023-05-21T00:19:29.603Z,0.00
2023-05-21T00:20:29.473Z,0.00
2023-05-21T00:21:29.455Z,0.00
2023-05-21T00:22:29.432Z,0.00
2023-05-21T00:23:29.416Z,0.00
2023-05-21T00:24:29.403Z,0.00
2023-05-21T00:25:29.401Z,0.00
2023-05-21T00:26:29.404Z,0.00
2023-05-21T00:27:29.389Z,0.00
2023-05-21T00:28:29.372Z,0.00
2023-05-21T00:29:29.355Z,0.00
2023-05-21T00:30:29.350Z,0.00
2023-05-21T00:31:29.352Z,0.00
2023-05-21T00:32:29.392Z,0.00
2023-05-21T00:33:29.318Z,0.00
2023-05-21T00:34:29.305Z,0.00
2023-05-21T00:35:29.290Z,0.00
2023-05-21T00:36:29.280Z,0.00
2023-05-21T00:37:29.299Z,0.00
2023-05-21T00:38:29.269Z,0.00
2023-05-21T00:39:29.253Z,0.00
2023-05-21T00:40:29.244Z,0.00
2023-05-21T00:41:29.227Z,0.00
2023-05-21T00:42:29.220Z,0.00
2023-05-21T00:43:29.236Z,0.00
2023-05-21T00:44:29.197Z,0.00
2023-05-21T00:45:29.195Z,0.00
2023-05-21T00:46:29.232Z,0.00
2023-05-21T00:47:29.200Z,0.00
2023-05-21T00:48:29.156Z,0.00
2023-05-21T00:49:29.152Z,0.00
2023-05-21T00:50:29.138Z,0.00
2023-05-21T00:51:29.153Z,0.00
2023-05-21T00:52:29.123Z,0.00
2023-05-21T00:53:29.105Z,0.00
2023-05-21T00:54:29.106Z,0.00
2023-05-21T00:55:29.085Z,0.00
2023-05-21T00:56:29.104Z,0.00
2023-05-21T00:57:29.069Z,0.00
2023-05-21T00:58:29.051Z,0.00
2023-05-21T00:59:29.044Z,0.00
2023-05-21T01:00:29.033Z,0.00
2023-05-21T01:01:29.057Z,0.00
2023-05-21T01:02:29.084Z,0.00
2023-05-21T01:03:29.103Z,0.00
2023-05-21T01:04:28.989Z,0.00
2023-05-21T01:05:28.988Z,0.00
2023-05-21T01:06:28.966Z,0.00
2023-05-21T01:07:28.954Z,0.00
2023-05-21T01:08:28.961Z,0.00
2023-05-21T01:09:28.949Z,0.00
2023-05-21T01:10:28.923Z,0.00
2023-05-21T01:11:28.920Z,0.00
2023-05-21T01:12:28.928Z,0.00
2023-05-21T01:13:28.889Z,0.00
2023-05-21T01:14:28.886Z,0.00
2023-05-21T01:15:28.862Z,0.00
2023-05-21T01:16:28.865Z,0.00
2023-05-21T01:17:28.897Z,0.00
2023-05-21T01:18:28.872Z,0.00
2023-05-21T01:19:28.881Z,0.00
2023-05-21T01:20:28.814Z,0.00
2023-05-21T01:21:28.799Z,0.00
2023-05-21T01:22:28.790Z,0.00
2023-05-21T01:23:28.804Z,0.00
2023-05-21T01:24:28.763Z,0.00
2023-05-21T01:25:28.756Z,0.00
2023-05-21T01:26:28.747Z,0.00
2023-05-21T01:27:28.732Z,0.00
2023-05-21T01:28:28.718Z,0.00
2023-05-21T01:29:28.728Z,0.00
2023-05-21T01:30:28.719Z,0.00
2023-05-21T01:31:28.689Z,0.00
2023-05-21T01:32:28.710Z,0.00
2023-05-21T01:33:28.769Z,0.00
2023-05-21T01:34:28.659Z,0.00
2023-05-21T01:35:28.652Z,0.00
2023-05-21T01:36:28.639Z,0.00
2023-05-21T01:37:28.648Z,0.00
2023-05-21T01:38:28.625Z,0.00
2023-05-21T01:39:28.631Z,0.00
2023-05-21T01:40:28.600Z,0.00
2023-05-21T01:41:28.587Z,0.00
2023-05-21T01:42:28.570Z,0.00
2023-05-21T01:43:28.596Z,0.00
2023-05-21T01:44:28.592Z,0.00
2023-05-21T01:45:28.532Z,0.00
2023-05-21T01:46:28.580Z,0.00
2023-05-21T01:47:28.538Z,0.00
2023-05-21T01:48:28.517Z,0.00
2023-05-21T01:49:28.517Z,0.00
2023-05-21T01:50:28.510Z,0.00
2023-05-21T01:51:28.478Z,0.00
2023-05-21T01:52:28.474Z,0.00
2023-05-21T01:53:28.460Z,0.00
2023-05-21T01:54:28.456Z,0.00
2023-05-21T01:55:28.437Z,0.00
2023-05-21T01:56:28.440Z,0.00
2023-05-21T01:57:28.417Z,0.00
2023-05-21T01:58:28.396Z,0.00
2023-05-21T01:59:28.393Z,0.00
2023-05-21T02:00:28.389Z,0.00
2023-05-21T02:01:28.478Z,0.00
2023-05-21T02:02:28.476Z,0.00
2023-05-21T02:03:28.446Z,0.00
2023-05-21T02:04:28.346Z,0.00
2023-05-21T02:05:28.338Z,0.00
2023-05-21T02:06:28.322Z,0.00
2023-05-21T02:07:28.339Z,0.00
2023-05-21T02:08:28.301Z,0.00
2023-05-21T02:09:28.290Z,0.00
2023-05-21T02:10:28.294Z,0.00
2023-05-21T02:11:28.277Z,0.00
2023-05-21T02:12:28.303Z,0.00
2023-05-21T02:13:28.288Z,0.00
2023-05-21T02:14:28.244Z,0.00
2023-05-21T02:15:28.227Z,0.00
2023-05-21T02:16:28.277Z,0.00
2023-05-21T02:17:28.247Z,0.00
2023-05-21T02:18:28.222Z,0.00
2023-05-21T02:19:28.298Z,0.00
2023-05-21T02:20:28.204Z,0.00
2023-05-21T02:21:28.177Z,0.00
2023-05-21T02:22:28.173Z,0.00
2023-05-21T02:23:28.169Z,0.00
2023-05-21T02:24:28.133Z,0.00
2023-05-21T02:25:28.139Z,0.00
2023-05-21T02:26:28.134Z,0.00
2023-05-21T02:27:28.116Z,0.00
2023-05-21T02:28:28.102Z,0.00
2023-05-21T02:29:28.098Z,0.00
2023-05-21T02:30:28.106Z,0.00
2023-05-21T02:31:28.094Z,0.00
2023-05-21T02:32:28.096Z,0.00
2023-05-21T02:33:28.069Z,0.00
2023-05-21T02:34:28.068Z,0.00
2023-05-21T02:35:28.045Z,0.00
2023-05-21T02:36:28.022Z,0.00
2023-05-21T02:37:28.027Z,0.00
2023-05-21T02:38:28.031Z,0.00
2023-05-21T02:39:27.991Z,0.00
2023-05-21T02:40:27.980Z,0.00
2023-05-21T02:41:27.968Z,0.00
2023-05-21T02:42:27.957Z,0.00
2023-05-21T02:43:27.957Z,0.00
2023-05-21T02:44:27.953Z,0.00
2023-05-21T02:45:27.929Z,0.00
2023-05-21T02:46:27.988Z,0.00
2023-05-21T02:47:27.960Z,0.00
2023-05-21T02:48:27.852Z,1.00
2023-05-21T02:49:27.884Z,0.00
2023-05-21T02:50:27.827Z,1.00
2023-05-21T02:51:27.811Z,1.00
2023-05-21T02:52:27.794Z,1.00
2023-05-21T02:53:27.810Z,1.00
2023-05-21T02:54:27.786Z,2.00
2023-05-21T02:55:27.818Z,0.00
2023-05-21T02:56:27.777Z,2.00
2023-05-21T02:57:27.745Z,2.00
2023-05-21T02:58:27.735Z,3.00
2023-05-21T02:59:27.806Z,0.00
2023-05-21T03:00:27.735Z,2.00
2023-05-21T03:01:27.775Z,1.00
2023-05-21T03:02:27.782Z,4.00
2023-05-21T03:03:27.839Z,2.00
2023-05-21T03:04:27.673Z,5.00
2023-05-21T03:05:27.679Z,3.00
2023-05-21T03:06:27.665Z,4.00
2023-05-21T03:07:27.681Z,4.00
2023-05-21T03:08:27.638Z,4.00
2023-05-21T03:09:27.622Z,7.00
2023-05-21T03:10:27.611Z,8.00
2023-05-21T03:11:27.619Z,10.00
2023-05-21T03:12:27.587Z,10.00
2023-05-21T03:13:27.640Z,6.00
2023-05-21T03:14:27.576Z,11.00
2023-05-21T03:15:27.568Z,17.00
2023-05-21T03:16:27.626Z,18.00
2023-05-21T03:17:27.587Z,18.00
2023-05-21T03:18:27.544Z,19.00
2023-05-21T03:19:27.574Z,22.00
2023-05-21T03:20:27.512Z,24.00
2023-05-21T03:21:27.493Z,24.00
2023-05-21T03:22:27.498Z,29.00
2023-05-21T03:23:27.475Z,31.00
2023-05-21T03:24:27.487Z,32.00
2023-05-21T03:25:27.480Z,34.00
2023-05-21T03:26:27.447Z,34.00
2023-05-21T03:27:27.441Z,39.00
2023-05-21T03:28:27.434Z,40.00
2023-05-21T03:29:27.421Z,42.00
2023-05-21T03:30:27.424Z,43.00
2023-05-21T03:31:27.450Z,42.00
2023-05-21T03:32:27.407Z,45.00
2023-05-21T03:33:27.379Z,51.00
2023-05-21T03:34:27.368Z,47.00
2023-05-21T03:35:27.377Z,49.00
2023-05-21T03:36:27.365Z,52.00
2023-05-21T03:37:27.338Z,56.00
2023-05-21T03:38:27.329Z,60.00
2023-05-21T03:39:27.323Z,66.00
2023-05-21T03:40:27.307Z,68.00
2023-05-21T03:41:27.322Z,70.00
2023-05-21T03:42:27.294Z,70.00
2023-05-21T03:43:27.281Z,76.00
2023-05-21T03:44:27.273Z,82.00
2023-05-21T03:45:27.265Z,84.00
2023-05-21T03:46:27.335Z,91.00
2023-05-21T03:47:27.309Z,92.00
2023-05-21T03:48:27.229Z,99.00
2023-05-21T03:49:27.225Z,101.00
2023-05-21T03:50:27.215Z,112.00
2023-05-21T03:51:27.223Z,113.00
2023-05-21T03:52:27.216Z,117.00
2023-05-21T03:53:27.196Z,120.00
2023-05-21T03:54:27.166Z,120.00
2023-05-21T03:55:27.164Z,129.00
2023-05-21T03:56:27.155Z,135.00
2023-05-21T03:57:27.142Z,140.00
2023-05-21T03:58:27.148Z,146.00
2023-05-21T03:59:27.124Z,152.00
2023-05-21T04:00:27.102Z,157.00
2023-05-21T04:01:27.104Z,163.00
2023-05-21T04:02:27.187Z,166.00
2023-05-21T04:03:27.272Z,167.00
2023-05-21T04:04:27.141Z,171.00
2023-05-21T04:05:27.051Z,177.00
2023-05-21T04:06:27.048Z,182.00
2023-05-21T04:07:27.030Z,194.00
2023-05-21T04:08:27.041Z,209.00
2023-05-21T04:09:27.010Z,219.00
2023-05-21T04:10:27.025Z,234.00
2023-05-21T04:11:26.987Z,228.00
2023-05-21T04:12:26.981Z,238.00
2023-05-21T04:13:26.963Z,248.00
2023-05-21T04:14:26.972Z,255.00
2023-05-21T04:15:26.969Z,263.00
2023-05-21T04:16:26.952Z,274.00
2023-05-21T04:17:27.127Z,282.00
2023-05-21T04:18:26.912Z,290.00
2023-05-21T04:19:26.993Z,293.00
2023-05-21T04:20:26.899Z,308.00
2023-05-21T04:21:26.894Z,313.00
2023-05-21T04:22:26.864Z,319.00
2023-05-21T04:23:26.870Z,306.00
2023-05-21T04:24:26.848Z,320.00
2023-05-21T04:25:26.847Z,320.00
2023-05-21T04:26:26.822Z,293.00
2023-05-21T04:27:26.812Z,272.00
2023-05-21T04:28:26.798Z,270.00
2023-05-21T04:29:26.820Z,305.00
2023-05-21T04:30:26.789Z,344.00
2023-05-21T04:31:26.861Z,368.00
2023-05-21T04:32:26.803Z,381.00
2023-05-21T04:33:26.757Z,391.00
2023-05-21T04:34:26.733Z,395.00
2023-05-21T04:35:26.731Z,395.00
2023-05-21T04:36:26.710Z,395.00
2023-05-21T04:37:26.699Z,390.00
2023-05-21T04:38:26.732Z,415.00
2023-05-21T04:39:26.674Z,418.00
2023-05-21T04:40:26.675Z,419.00
2023-05-21T04:41:26.660Z,427.00
2023-05-21T04:42:26.661Z,428.00
2023-05-21T04:43:26.741Z,435.00
2023-05-21T04:44:26.637Z,430.00
2023-05-21T04:45:26.631Z,435.00
2023-05-21T04:46:26.633Z,437.00
2023-05-21T04:47:26.660Z,449.00
2023-05-21T04:48:26.627Z,463.00
2023-05-21T04:49:26.581Z,490.00
2023-05-21T04:50:26.564Z,511.00
2023-05-21T04:51:26.564Z,493.00
2023-05-21T04:52:26.544Z,451.00
2023-05-21T04:53:26.532Z,393.00
2023-05-21T04:54:26.511Z,358.00
2023-05-21T04:55:26.512Z,357.00
2023-05-21T04:56:26.500Z,363.00
2023-05-21T04:57:26.508Z,363.00
2023-05-21T04:58:26.475Z,368.00
2023-05-21T04:59:26.460Z,389.00
2023-05-21T05:00:26.454Z,433.00
2023-05-21T05:01:26.480Z,453.00
2023-05-21T05:02:26.460Z,467.00
2023-05-21T05:03:26.625Z,464.00
2023-05-21T05:04:26.442Z,473.00
2023-05-21T05:05:26.401Z,482.00
2023-05-21T05:06:26.385Z,487.00
2023-05-21T05:07:26.374Z,500.00
2023-05-21T05:08:26.358Z,531.00
2023-05-21T05:09:26.378Z,561.00
2023-05-21T05:10:26.336Z,586.00
2023-05-21T05:11:26.333Z,607.00
2023-05-21T05:12:26.333Z,624.00
2023-05-21T05:13:26.331Z,650.00
2023-05-21T05:14:26.317Z,666.00
2023-05-21T05:15:26.331Z,691.00
2023-05-21T05:16:26.422Z,714.00
2023-05-21T05:17:26.350Z,735.00
2023-05-21T05:18:26.263Z,752.00
2023-05-21T05:19:26.334Z,764.00
2023-05-21T05:20:26.229Z,786.00
2023-05-21T05:21:26.239Z,830.00
2023-05-21T05:22:26.219Z,833.00
2023-05-21T05:23:26.191Z,832.00
2023-05-21T05:24:26.213Z,796.00
2023-05-21T05:25:26.168Z,776.00
2023-05-21T05:26:26.162Z,775.00
2023-05-21T05:27:26.153Z,781.00
2023-05-21T05:28:26.143Z,787.00
2023-05-21T05:29:26.129Z,805.00
2023-05-21T05:30:26.159Z,809.00
2023-05-21T05:31:26.174Z,820.00
2023-05-21T05:32:26.127Z,824.00
2023-05-21T05:33:26.102Z,807.00
2023-05-21T05:34:26.075Z,793.00
2023-05-21T05:35:26.063Z,771.00
2023-05-21T05:36:26.068Z,771.00
2023-05-21T05:37:26.073Z,764.00
2023-05-21T05:38:26.036Z,773.00
2023-05-21T05:39:26.035Z,774.00
2023-05-21T05:40:26.005Z,752.00
2023-05-21T05:41:26.001Z,696.00
2023-05-21T05:42:25.989Z,890.00
2023-05-21T05:43:25.987Z,930.00
2023-05-21T05:44:25.979Z,900.00
2023-05-21T05:45:25.955Z,868.00
2023-05-21T05:46:25.976Z,853.00
2023-05-21T05:47:25.967Z,852.00
2023-05-21T05:48:25.943Z,857.00
2023-05-21T05:49:25.909Z,854.00
2023-05-21T05:50:25.903Z,864.00
2023-05-21T05:51:25.897Z,1021.00
2023-05-21T05:52:25.889Z,1013.00
2023-05-21T05:53:25.880Z,992.00
2023-05-21T05:54:25.857Z,976.00
2023-05-21T05:55:25.847Z,959.00
2023-05-21T05:56:25.834Z,945.00
2023-05-21T05:57:25.838Z,929.00
2023-05-21T05:58:25.811Z,900.00
2023-05-21T05:59:25.822Z,889.00
2023-05-21T06:00:25.791Z,880.00
2023-05-21T06:01:25.778Z,880.00
2023-05-21T06:02:25.896Z,895.00
2023-05-21T06:03:25.896Z,893.00
2023-05-21T06:04:25.756Z,913.00
2023-05-21T06:05:25.770Z,938.00
2023-05-21T06:06:25.722Z,966.00
2023-05-21T06:07:25.718Z,985.00
2023-05-21T06:08:25.699Z,998.00
2023-05-21T06:09:25.733Z,1003.00
2023-05-21T06:10:25.714Z,986.00
2023-05-21T06:11:25.720Z,957.00
2023-05-21T06:12:25.674Z,929.00
2023-05-21T06:13:25.657Z,888.00
2023-05-21T06:14:25.649Z,846.00
2023-05-21T06:15:25.618Z,813.00
2023-05-21T06:16:25.645Z,785.00
2023-05-21T06:17:25.644Z,772.00
2023-05-21T06:18:25.588Z,749.00
2023-05-21T06:19:25.619Z,731.00
2023-05-21T06:20:25.564Z,716.00
2023-05-21T06:21:25.580Z,703.00
2023-05-21T06:22:25.787Z,689.00
2023-05-21T06:23:25.544Z,681.00
2023-05-21T06:24:25.519Z,670.00
2023-05-21T06:25:25.511Z,668.00
2023-05-21T06:26:25.501Z,665.00
2023-05-21T06:27:25.500Z,656.00
2023-05-21T06:28:25.494Z,662.00
2023-05-21T06:29:25.472Z,652.00
2023-05-21T06:30:25.468Z,649.00
2023-05-21T06:31:25.449Z,651.00
2023-05-21T06:32:25.581Z,658.00
2023-05-21T06:33:25.550Z,667.00
2023-05-21T06:34:25.412Z,681.00
2023-05-21T06:35:25.417Z,691.00
2023-05-21T06:36:25.399Z,709.00
2023-05-21T06:37:26.651Z,737.00
2023-05-21T06:38:25.378Z,762.00
2023-05-21T06:39:25.376Z,794.00
2023-05-21T06:40:25.360Z,830.00
2023-05-21T06:41:25.339Z,863.00
2023-05-21T06:42:25.331Z,891.00
2023-05-21T06:43:25.340Z,926.00
2023-05-21T06:44:25.340Z,958.00
2023-05-21T06:45:25.299Z,987.00
2023-05-21T06:46:25.329Z,1016.00
2023-05-21T06:47:25.327Z,1026.00
2023-05-21T06:48:25.299Z,1055.00
2023-05-21T06:49:25.261Z,1059.00
2023-05-21T06:50:25.269Z,1069.00
2023-05-21T06:51:25.230Z,1063.00
2023-05-21T06:52:25.213Z,1056.00
2023-05-21T06:53:25.227Z,1052.00
2023-05-21T06:54:26.922Z,1047.00
2023-05-21T06:55:25.208Z,1059.00
2023-05-21T06:56:25.180Z,1065.00
2023-05-21T06:57:25.196Z,1079.00
2023-05-21T06:58:25.178Z,1093.00
2023-05-21T06:59:25.141Z,1111.00
2023-05-21T07:00:25.148Z,1143.00
2023-05-21T07:01:25.228Z,1167.00
2023-05-21T07:02:25.187Z,1226.00
2023-05-21T07:03:25.302Z,1284.00
2023-05-21T07:04:25.095Z,1390.00
2023-05-21T07:05:25.109Z,1427.00
2023-05-21T07:06:25.148Z,1460.00
2023-05-21T07:07:25.063Z,1486.00
2023-05-21T07:08:25.067Z,1518.00
2023-05-21T07:09:25.053Z,1553.00
2023-05-21T07:10:25.032Z,1545.00
2023-05-21T07:11:25.019Z,1542.00
2023-05-21T07:12:25.026Z,1558.00
2023-05-21T07:13:25.008Z,1547.00
2023-05-21T07:14:24.985Z,1550.00
2023-05-21T07:15:25.014Z,1546.00
2023-05-21T07:16:25.043Z,1535.00
2023-05-21T07:17:25.006Z,1546.00
2023-05-21T07:18:24.947Z,1561.00
2023-05-21T07:19:24.984Z,1560.00
2023-05-21T07:20:24.943Z,1520.00
2023-05-21T07:21:24.922Z,1528.00
2023-05-21T07:22:26.697Z,1571.00
2023-05-21T07:23:24.942Z,1560.00
2023-05-21T07:24:24.889Z,1552.00
2023-05-21T07:25:24.879Z,1587.00
2023-05-21T07:26:24.876Z,1594.00
2023-05-21T07:27:26.031Z,1605.00
2023-05-21T07:28:24.932Z,1572.00
2023-05-21T07:29:24.846Z,1569.00
2023-05-21T07:30:24.833Z,1568.00
2023-05-21T07:31:24.827Z,1570.00
2023-05-21T07:32:24.837Z,1579.00
2023-05-21T07:33:24.789Z,1595.00
2023-05-21T07:34:24.778Z,1612.00
2023-05-21T07:35:24.771Z,1648.00
2023-05-21T07:36:24.753Z,1679.00
2023-05-21T07:37:24.764Z,1702.00
2023-05-21T07:38:24.738Z,1736.00
2023-05-21T07:39:24.769Z,1769.00
2023-05-21T07:40:24.737Z,1779.00
2023-05-21T07:41:24.707Z,1781.00
2023-05-21T07:42:24.704Z,1795.00
2023-05-21T07:43:24.890Z,1818.00
2023-05-21T07:44:24.672Z,1809.00
2023-05-21T07:45:24.655Z,1871.00
2023-05-21T07:46:24.689Z,1874.00
2023-05-21T07:47:24.687Z,1875.00
2023-05-21T07:48:24.635Z,1925.00
2023-05-21T07:49:24.639Z,1945.00
2023-05-21T07:50:24.638Z,2029.00
2023-05-21T07:51:24.667Z,2101.00
2023-05-21T07:52:24.675Z,2228.00
2023-05-21T07:53:24.570Z,2179.00
2023-05-21T07:54:24.561Z,2170.00
2023-05-21T07:55:24.572Z,2164.00
2023-05-21T07:56:24.539Z,2165.00
2023-05-21T07:57:24.555Z,2166.00
2023-05-21T07:58:24.517Z,2160.00
2023-05-21T07:59:24.529Z,2158.00
2023-05-21T08:00:24.547Z,2152.00
2023-05-21T08:01:24.502Z,2237.00
2023-05-21T08:02:24.554Z,2200.00
2023-05-21T08:03:24.596Z,2159.00
2023-05-21T08:04:24.620Z,2168.00
2023-05-21T08:05:24.468Z,2216.00
2023-05-21T08:06:24.451Z,2181.00
2023-05-21T08:07:24.430Z,2102.00
2023-05-21T08:08:24.446Z,2072.00
2023-05-21T08:09:24.418Z,2047.00
2023-05-21T08:10:24.461Z,2042.00
2023-05-21T08:11:24.393Z,2028.00
2023-05-21T08:12:24.377Z,2009.00
2023-05-21T08:13:24.364Z,2068.00
2023-05-21T08:14:24.359Z,2106.00
2023-05-21T08:15:24.353Z,2078.00
2023-05-21T08:16:24.388Z,2051.00
2023-05-21T08:17:24.342Z,2058.00
2023-05-21T08:18:24.313Z,2082.00
2023-05-21T08:19:24.358Z,2111.00
2023-05-21T08:20:24.302Z,2143.00
2023-05-21T08:21:24.280Z,2150.00
2023-05-21T08:22:24.311Z,2157.00
2023-05-21T08:23:24.257Z,2171.00
2023-05-21T08:24:24.247Z,2172.00
2023-05-21T08:25:24.270Z,2152.00
2023-05-21T08:26:24.227Z,2116.00
2023-05-21T08:27:24.212Z,2088.00
2023-05-21T08:28:24.206Z,2050.00
2023-05-21T08:29:24.195Z,2020.00
2023-05-21T08:30:24.189Z,2033.00
2023-05-21T08:31:24.188Z,2044.00
2023-05-21T08:32:24.185Z,2032.00
2023-05-21T08:33:24.170Z,2131.00
2023-05-21T08:34:24.142Z,2379.00
2023-05-21T08:35:24.141Z,2489.00
2023-05-21T08:36:24.138Z,2409.00
2023-05-21T08:37:24.119Z,2456.00
2023-05-21T08:38:24.106Z,2377.00
2023-05-21T08:39:24.109Z,2453.00
2023-05-21T08:40:24.081Z,2609.00
2023-05-21T08:41:24.073Z,2592.00
2023-05-21T08:42:35.652Z,2646.00
2023-05-21T08:43:24.045Z,2702.00
2023-05-21T08:44:24.038Z,2743.00
2023-05-21T08:45:24.040Z,2745.00
2023-05-21T08:46:24.123Z,2722.00
2023-05-21T08:47:24.033Z,2646.00
2023-05-21T08:48:24.021Z,2563.00
2023-05-21T08:49:26.410Z,2529.00
2023-05-21T08:50:23.972Z,2566.00
2023-05-21T08:51:23.963Z,2552.00
2023-05-21T08:52:23.948Z,2672.00
2023-05-21T08:53:28.696Z,2676.00
2023-05-21T08:54:23.937Z,2647.00
2023-05-21T08:55:23.916Z,2731.00
2023-05-21T08:56:23.909Z,2720.00
2023-05-21T08:57:23.901Z,2642.00
2023-05-21T08:58:23.895Z,2623.00
2023-05-21T08:59:23.893Z,2635.00
2023-05-21T09:00:23.863Z,2707.00
2023-05-21T09:01:25.747Z,2688.00
2023-05-21T09:02:23.901Z,2600.00
2023-05-21T09:03:23.971Z,2571.00
2023-05-21T09:04:23.863Z,2570.00
2023-05-21T09:05:23.815Z,2490.00
2023-05-21T09:06:23.804Z,2574.00
2023-05-21T09:07:23.790Z,2619.00
2023-05-21T09:08:23.791Z,2594.00
2023-05-21T09:09:23.797Z,2610.00
2023-05-21T09:10:23.769Z,2581.00
2023-05-21T09:11:23.769Z,2520.00
2023-05-21T09:12:23.761Z,2555.00
2023-05-21T09:13:23.758Z,2550.00
2023-05-21T09:14:23.711Z,2621.00
2023-05-21T09:15:23.736Z,2641.00
2023-05-21T09:16:23.727Z,2594.00
2023-05-21T09:17:23.747Z,2684.00
2023-05-21T09:18:23.720Z,2689.00
2023-05-21T09:19:23.725Z,2701.00
2023-05-21T09:20:23.662Z,2521.00
2023-05-21T09:21:23.649Z,2538.00
2023-05-21T09:22:23.640Z,2503.00
2023-05-21T09:23:23.634Z,2329.00
2023-05-21T09:24:23.674Z,2223.00
2023-05-21T09:25:23.606Z,2218.00
2023-05-21T09:26:23.590Z,2188.00
2023-05-21T09:27:23.578Z,2239.00
2023-05-21T09:28:23.581Z,2362.00
2023-05-21T09:29:23.562Z,2243.00
2023-05-21T09:30:26.137Z,2282.00
2023-05-21T09:31:23.576Z,2373.00
2023-05-21T09:32:23.526Z,2422.00
2023-05-21T09:33:23.528Z,2338.00
2023-05-21T09:34:23.505Z,2497.00
2023-05-21T09:35:23.525Z,2642.00
2023-05-21T09:36:23.491Z,2466.00
2023-05-21T09:37:27.402Z,2383.00
2023-05-21T09:38:23.493Z,2402.00
2023-05-21T09:39:23.452Z,2411.00
2023-05-21T09:40:23.454Z,2442.00
2023-05-21T09:41:23.454Z,2581.00
2023-05-21T09:42:23.423Z,2708.00
2023-05-21T09:43:23.410Z,2690.00
2023-05-21T09:44:23.404Z,2644.00
2023-05-21T09:45:23.390Z,2658.00
2023-05-21T09:46:23.469Z,2583.00
2023-05-21T09:47:23.401Z,2539.00
2023-05-21T09:48:23.371Z,2495.00
2023-05-21T09:49:23.347Z,2425.00
2023-05-21T09:50:23.345Z,2383.00
2023-05-21T09:51:23.322Z,2429.00
2023-05-21T09:52:23.330Z,2372.00
2023-05-21T09:53:23.302Z,2242.00
2023-05-21T09:54:23.300Z,2230.00
2023-05-21T09:55:23.290Z,2232.00
2023-05-21T09:56:23.296Z,2091.00
2023-05-21T09:57:23.265Z,1986.00
2023-05-21T09:58:23.262Z,1974.00
2023-05-21T09:59:23.241Z,2036.00
2023-05-21T10:00:23.238Z,2157.00
2023-05-21T10:01:23.311Z,2269.00
2023-05-21T10:02:23.365Z,2206.00
2023-05-21T10:03:23.244Z,2104.00
2023-05-21T10:04:23.255Z,1905.00
2023-05-21T10:05:23.181Z,1805.00
2023-05-21T10:06:23.173Z,1760.00
2023-05-21T10:07:23.160Z,1831.00
2023-05-21T10:08:23.166Z,1964.00
2023-05-21T10:09:23.139Z,2040.00
2023-05-21T10:10:23.133Z,2019.00
2023-05-21T10:11:23.112Z,1983.00
2023-05-21T10:12:23.103Z,1918.00
2023-05-21T10:13:23.105Z,1848.00
2023-05-21T10:14:23.103Z,1841.00
2023-05-21T10:15:23.079Z,1837.00
2023-05-21T10:16:23.098Z,1739.00
2023-05-21T10:17:23.137Z,1638.00
2023-05-21T10:18:23.043Z,1732.00
2023-05-21T10:19:23.033Z,1640.00
2023-05-21T10:20:23.039Z,1555.00
2023-05-21T10:21:23.033Z,1600.00
2023-05-21T10:22:23.014Z,1619.00
2023-05-21T10:23:22.983Z,1605.00
2023-05-21T10:24:22.984Z,1441.00
2023-05-21T10:25:22.984Z,1425.00
2023-05-21T10:26:22.973Z,1619.00
2023-05-21T10:27:22.942Z,1484.00
2023-05-21T10:28:22.945Z,1439.00
2023-05-21T10:29:22.950Z,1492.00
2023-05-21T10:30:22.911Z,1517.00
2023-05-21T10:31:22.925Z,1455.00
2023-05-21T10:32:23.154Z,1510.00
2023-05-21T10:33:22.943Z,1595.00
2023-05-21T10:34:22.876Z,1876.00
2023-05-21T10:35:22.859Z,1934.00
2023-05-21T10:36:22.866Z,1938.00
2023-05-21T10:37:22.858Z,1899.00
2023-05-21T10:38:22.843Z,1698.00
2023-05-21T10:39:22.846Z,1647.00
2023-05-21T10:40:22.814Z,1888.00
2023-05-21T10:41:22.802Z,1959.00
2023-05-21T10:42:22.796Z,1901.00
2023-05-21T10:43:22.774Z,1837.00
2023-05-21T10:44:22.772Z,1760.00
2023-05-21T10:45:22.849Z,1898.00
2023-05-21T10:46:22.786Z,2041.00
2023-05-21T10:47:22.750Z,1994.00
2023-05-21T10:48:22.737Z,2055.00
2023-05-21T10:49:22.748Z,2182.00
2023-05-21T10:50:22.720Z,2233.00
2023-05-21T10:51:22.709Z,2318.00
2023-05-21T10:52:22.695Z,2352.00
2023-05-21T10:53:22.705Z,2378.00
2023-05-21T10:54:22.666Z,2440.00
2023-05-21T10:55:22.696Z,2491.00
2023-05-21T10:56:22.659Z,2360.00
2023-05-21T10:57:22.627Z,2209.00
2023-05-21T10:58:22.618Z,2210.00
2023-05-21T10:59:22.625Z,2284.00
2023-05-21T11:00:22.635Z,2227.00
2023-05-21T11:01:22.636Z,2291.00
2023-05-21T11:02:22.711Z,2316.00
2023-05-21T11:03:22.746Z,2196.00
2023-05-21T11:04:22.566Z,2305.00
2023-05-21T11:05:22.557Z,2299.00
2023-05-21T11:06:22.561Z,2398.00
2023-05-21T11:07:22.530Z,2342.00
2023-05-21T11:08:22.553Z,2320.00
2023-05-21T11:09:22.513Z,2313.00
2023-05-21T11:10:22.508Z,2204.00
2023-05-21T11:11:22.507Z,2044.00
2023-05-21T11:12:22.486Z,1975.00
2023-05-21T11:13:22.469Z,1890.00
2023-05-21T11:14:22.458Z,1892.00
2023-05-21T11:15:22.440Z,1773.00
2023-05-21T11:16:22.494Z,1711.00
2023-05-21T11:17:22.510Z,1745.00
2023-05-21T11:18:22.416Z,1763.00
2023-05-21T11:19:22.447Z,1751.00
2023-05-21T11:20:22.397Z,1802.00
2023-05-21T11:21:22.417Z,1847.00
2023-05-21T11:22:22.374Z,1928.00
2023-05-21T11:23:22.379Z,1955.00
2023-05-21T11:24:22.369Z,1929.00
2023-05-21T11:25:22.350Z,1964.00
2023-05-21T11:26:22.340Z,2028.00
2023-05-21T11:27:22.336Z,2032.00
2023-05-21T11:28:22.310Z,1985.00
2023-05-21T11:29:22.306Z,1967.00
2023-05-21T11:30:22.296Z,1948.00
2023-05-21T11:31:22.362Z,1927.00
2023-05-21T11:32:22.263Z,2006.00
2023-05-21T11:33:22.269Z,1980.00
2023-05-21T11:34:22.252Z,1991.00
2023-05-21T11:35:22.237Z,2042.00
2023-05-21T11:36:22.228Z,2044.00
2023-05-21T11:37:22.237Z,2064.00
2023-05-21T11:38:22.212Z,1998.00
2023-05-21T11:39:22.263Z,1953.00
2023-05-21T11:40:22.194Z,1944.00
2023-05-21T11:41:22.176Z,1922.00
2023-05-21T11:42:22.159Z,1925.00
2023-05-21T11:43:22.162Z,1883.00
2023-05-21T11:44:22.157Z,1871.00
2023-05-21T11:45:22.127Z,1813.00
2023-05-21T11:46:22.166Z,1884.00
2023-05-21T11:47:22.121Z,1842.00
2023-05-21T11:48:23.387Z,1886.00
2023-05-21T11:49:22.106Z,1879.00
2023-05-21T11:50:22.084Z,1892.00
2023-05-21T11:51:22.064Z,1880.00
2023-05-21T11:52:22.056Z,1966.00
2023-05-21T11:53:22.060Z,1899.00
2023-05-21T11:54:22.054Z,1874.00
2023-05-21T11:55:22.024Z,1877.00
2023-05-21T11:56:22.021Z,1803.00
2023-05-21T11:57:22.037Z,1842.00
2023-05-21T11:58:21.990Z,1909.00
2023-05-21T11:59:22.009Z,1990.00
2023-05-21T12:00:22.119Z,2052.00
2023-05-21T12:01:21.978Z,2057.00
2023-05-21T12:02:22.053Z,2170.00
2023-05-21T12:03:22.016Z,2458.00
2023-05-21T12:04:21.940Z,2360.00
2023-05-21T12:05:21.941Z,2359.00
2023-05-21T12:06:21.934Z,2339.00
2023-05-21T12:07:21.923Z,2298.00
2023-05-21T12:08:21.885Z,2264.00
2023-05-21T12:09:21.876Z,2238.00
2023-05-21T12:10:21.869Z,2190.00
2023-05-21T12:11:21.875Z,2203.00
2023-05-21T12:12:21.873Z,2215.00
2023-05-21T12:13:21.841Z,2180.00
2023-05-21T12:14:21.887Z,2191.00
2023-05-21T12:15:21.825Z,2198.00
2023-05-21T12:16:21.852Z,2146.00
2023-05-21T12:17:21.796Z,2052.00
2023-05-21T12:18:21.802Z,2049.00
2023-05-21T12:19:21.828Z,1978.00
2023-05-21T12:20:21.782Z,1886.00
2023-05-21T12:21:21.763Z,1833.00
2023-05-21T12:22:21.737Z,1776.00
2023-05-21T12:23:21.733Z,1726.00
2023-05-21T12:24:21.726Z,1697.00
2023-05-21T12:25:21.769Z,1757.00
2023-05-21T12:26:21.719Z,1822.00
2023-05-21T12:27:21.704Z,1840.00
2023-05-21T12:28:21.681Z,1860.00
2023-05-21T12:29:21.678Z,1855.00
2023-05-21T12:30:21.671Z,1888.00